createdAt,value
2023-02-19T00:00:39.091Z,8.23
2023-02-19T00:01:42.940Z,8.13
2023-02-19T00:02:47.463Z,7.53
2023-02-19T00:03:52.223Z,7.25
2023-02-19T00:04:53.666Z,8.27
2023-02-19T00:05:55.211Z,7.93
2023-02-19T00:06:56.692Z,7.43
2023-02-19T00:07:58.306Z,7.70
2023-02-19T00:08:59.853Z,7.43
2023-02-19T00:10:01.258Z,8.32
2023-02-19T00:11:04.652Z,8.32
2023-02-19T00:12:06.388Z,7.97
2023-02-19T00:13:07.844Z,7.60
2023-02-19T00:14:13.600Z,7.93
2023-02-19T00:15:15.054Z,8.10
2023-02-19T00:16:28.094Z,7.60
2023-02-19T00:17:31.181Z,7.13
2023-02-19T00:18:32.572Z,7.80
2023-02-19T00:19:33.970Z,8.20
2023-02-19T00:20:35.387Z,8.02
2023-02-19T00:21:36.811Z,7.47
2023-02-19T00:22:38.213Z,7.95
2023-02-19T00:23:40.138Z,7.47
2023-02-19T00:24:42.064Z,8.75
2023-02-19T00:25:43.507Z,8.35
2023-02-19T00:26:46.433Z,7.78
2023-02-19T00:27:47.856Z,8.10
2023-02-19T00:28:50.968Z,10.15
2023-02-19T00:29:52.865Z,8.32
2023-02-19T00:30:54.326Z,8.20
2023-02-19T00:31:55.967Z,8.15
2023-02-19T00:32:57.461Z,8.32
2023-02-19T00:34:03.832Z,8.55
2023-02-19T00:35:05.491Z,8.20
2023-02-19T00:36:07.305Z,9.02
2023-02-19T00:37:08.726Z,8.25
2023-02-19T00:38:10.196Z,8.55
2023-02-19T00:39:15.323Z,8.27
2023-02-19T00:40:17.190Z,8.27
2023-02-19T00:41:21.309Z,7.55
2023-02-19T00:42:22.851Z,8.82
2023-02-19T00:43:24.331Z,7.50
2023-02-19T00:44:25.745Z,7.47
2023-02-19T00:45:27.269Z,8.05
2023-02-19T00:46:35.065Z,7.60
2023-02-19T00:47:36.499Z,7.47
2023-02-19T00:48:37.936Z,7.97
2023-02-19T00:49:39.377Z,8.35
2023-02-19T00:50:40.767Z,8.60
2023-02-19T00:51:42.262Z,9.43
2023-02-19T00:52:43.685Z,7.95
2023-02-19T00:53:45.554Z,8.30
2023-02-19T00:54:46.982Z,8.10
2023-02-19T00:55:48.477Z,8.38
2023-02-19T00:56:50.342Z,7.65
2023-02-19T00:57:51.787Z,8.35
2023-02-19T00:58:53.567Z,7.97
2023-02-19T00:59:54.992Z,8.18
2023-02-19T01:00:56.609Z,8.05
2023-02-19T01:01:58.049Z,8.40
2023-02-19T01:02:59.497Z,7.78
2023-02-19T01:04:00.988Z,7.60
2023-02-19T01:05:02.492Z,8.10
2023-02-19T01:06:05.112Z,7.72
2023-02-19T01:07:07.064Z,7.82
2023-02-19T01:08:09.377Z,7.68
2023-02-19T01:09:10.834Z,7.25
2023-02-19T01:10:12.303Z,7.15
2023-02-19T01:11:14.429Z,7.80
2023-02-19T01:13:18.365Z,7.18
2023-02-19T01:14:19.768Z,7.57
2023-02-19T01:15:21.338Z,7.55
2023-02-19T01:16:27.432Z,7.70
2023-02-19T01:17:28.958Z,7.45
2023-02-19T01:18:30.932Z,7.70
2023-02-19T01:19:32.332Z,8.27
2023-02-19T01:20:33.833Z,8.50
2023-02-19T01:21:35.215Z,7.28
2023-02-19T01:22:36.662Z,7.95
2023-02-19T01:23:38.364Z,7.82
2023-02-19T01:24:39.908Z,7.28
2023-02-19T01:25:42.475Z,7.85
2023-02-19T01:26:43.899Z,7.97
2023-02-19T01:27:46.116Z,7.90
2023-02-19T01:28:48.293Z,7.13
2023-02-19T01:29:49.689Z,7.72
2023-02-19T01:30:51.084Z,7.60
2023-02-19T01:31:52.556Z,7.43
2023-02-19T01:32:54.089Z,6.90
2023-02-19T01:33:58.595Z,6.88
2023-02-19T01:35:00.004Z,7.40
2023-02-19T01:36:04.684Z,7.55
2023-02-19T01:37:08.037Z,7.22
2023-02-19T01:38:09.497Z,8.00
2023-02-19T01:39:11.325Z,7.65
2023-02-19T01:40:12.744Z,7.45
2023-02-19T01:41:17.243Z,7.90
2023-02-19T01:42:18.667Z,6.75
2023-02-19T01:43:20.170Z,7.45
2023-02-19T01:44:21.542Z,7.28
2023-02-19T01:45:29.471Z,7.43
2023-02-19T01:46:36.431Z,8.00
2023-02-19T01:47:37.890Z,8.05
2023-02-19T01:48:39.758Z,8.25
2023-02-19T01:49:48.939Z,7.78
2023-02-19T01:50:55.874Z,7.80
2023-02-19T01:52:13.373Z,8.23
2023-02-19T01:53:19.060Z,7.70
2023-02-19T01:54:25.110Z,7.85
2023-02-19T01:55:26.584Z,8.25
2023-02-19T01:56:28.968Z,8.15
2023-02-19T01:57:35.752Z,8.40
2023-02-19T01:58:38.061Z,7.88
2023-02-19T01:59:40.870Z,8.27
2023-02-19T02:00:42.574Z,9.85
2023-02-19T02:01:44.829Z,8.77
2023-02-19T02:02:51.268Z,8.52
2023-02-19T02:03:52.852Z,9.02
2023-02-19T02:04:56.312Z,8.52
2023-02-19T02:06:03.766Z,8.57
2023-02-19T02:07:29.601Z,8.98
2023-02-19T02:08:51.804Z,8.23
2023-02-19T02:10:12.227Z,8.85
2023-02-19T02:11:13.656Z,8.45
2023-02-19T02:12:15.437Z,8.25
2023-02-19T02:13:17.165Z,7.78
2023-02-19T02:14:25.353Z,7.78
2023-02-19T02:15:36.434Z,7.28
2023-02-19T02:17:15.825Z,7.32
2023-02-19T02:19:05.227Z,7.03
2023-02-19T02:20:15.417Z,7.18
2023-02-19T02:21:41.405Z,8.10
2023-02-19T02:23:05.577Z,8.07
2023-02-19T02:24:31.574Z,7.80
2023-02-19T02:25:58.779Z,7.05
2023-02-19T02:27:15.336Z,7.82
2023-02-19T02:28:19.707Z,7.88
2023-02-19T02:29:26.453Z,7.30
2023-02-19T02:30:41.472Z,7.88
2023-02-19T02:31:49.956Z,7.78
2023-02-19T02:33:00.427Z,7.10
2023-02-19T02:34:12.149Z,9.05
2023-02-19T02:35:19.201Z,7.25
2023-02-19T02:36:27.569Z,8.27
2023-02-19T02:37:33.897Z,6.97
2023-02-19T02:38:38.875Z,8.00
2023-02-19T02:39:42.053Z,8.05
2023-02-19T02:40:44.912Z,8.50
2023-02-19T02:42:13.847Z,7.68
2023-02-19T02:43:15.369Z,7.35
2023-02-19T02:44:16.754Z,7.03
2023-02-19T02:45:36.369Z,6.93
2023-02-19T02:46:42.264Z,5.88
2023-02-19T02:47:46.414Z,6.70
2023-02-19T02:48:56.122Z,6.97
2023-02-19T02:50:07.915Z,7.15
2023-02-19T02:51:30.415Z,7.07
2023-02-19T02:52:54.782Z,6.75
2023-02-19T02:54:23.767Z,6.70
2023-02-19T02:55:26.403Z,6.53
2023-02-19T02:56:28.943Z,5.10
2023-02-19T02:57:30.386Z,6.65
2023-02-19T02:58:32.545Z,6.05
2023-02-19T02:59:38.123Z,5.93
2023-02-19T03:01:02.406Z,5.82
2023-02-19T03:02:18.965Z,5.72
2023-02-19T03:03:24.920Z,5.68
2023-02-19T03:04:30.225Z,5.82
2023-02-19T03:05:51.277Z,5.85
2023-02-19T03:06:55.332Z,5.95
2023-02-19T03:08:03.716Z,6.63
2023-02-19T03:09:14.784Z,6.55
2023-02-19T03:10:39.909Z,6.75
2023-02-19T03:12:03.895Z,6.80
2023-02-19T03:13:29.454Z,7.15
2023-02-19T03:14:58.226Z,6.82
2023-02-19T03:16:25.197Z,7.32
2023-02-19T03:17:54.178Z,8.77
2023-02-19T03:19:17.628Z,7.03
2023-02-19T03:20:23.155Z,6.75
2023-02-19T03:21:27.351Z,6.97
2023-02-19T03:22:34.521Z,6.50
2023-02-19T03:23:55.938Z,7.00
2023-02-19T03:25:20.775Z,5.38
2023-02-19T03:26:24.132Z,5.68
2023-02-19T03:27:30.232Z,5.47
2023-02-19T03:28:53.460Z,4.68
2023-02-19T03:30:00.581Z,4.43
2023-02-19T03:31:02.067Z,5.55
2023-02-19T03:32:36.963Z,4.28
2023-02-19T03:33:41.471Z,3.78
2023-02-19T03:34:55.946Z,3.72
2023-02-19T03:36:01.426Z,3.80
2023-02-19T03:37:25.079Z,4.35
2023-02-19T03:38:52.811Z,3.90
2023-02-19T03:39:55.345Z,4.32
2023-02-19T03:41:14.698Z,4.38
2023-02-19T03:42:22.110Z,3.55
2023-02-19T03:43:32.677Z,4.30
2023-02-19T03:44:43.262Z,3.97
2023-02-19T03:46:06.890Z,3.90
2023-02-19T03:47:17.175Z,4.18
2023-02-19T03:48:30.879Z,4.78
2023-02-19T03:49:47.838Z,4.55
2023-02-19T03:51:08.783Z,5.28
2023-02-19T03:52:25.701Z,4.82
2023-02-19T03:53:37.972Z,4.65
2023-02-19T03:54:52.696Z,4.40
2023-02-19T03:56:02.987Z,4.25
2023-02-19T03:57:14.221Z,4.47
2023-02-19T03:58:27.762Z,4.90
2023-02-19T03:59:37.534Z,5.20
2023-02-19T04:00:49.262Z,4.57
2023-02-19T04:01:56.247Z,5.15
2023-02-19T04:03:20.588Z,5.07
2023-02-19T04:04:36.453Z,4.38
2023-02-19T04:05:45.367Z,4.60
2023-02-19T04:06:53.884Z,4.82
2023-02-19T04:08:00.379Z,5.90
2023-02-19T04:09:05.960Z,5.60
2023-02-19T04:10:09.246Z,5.68
2023-02-19T04:11:11.951Z,5.93
2023-02-19T04:12:15.685Z,6.40
2023-02-19T04:13:24.988Z,5.32
2023-02-19T04:14:37.046Z,4.80
2023-02-19T04:15:41.584Z,4.53
2023-02-19T04:16:47.676Z,5.93
2023-02-19T04:18:05.361Z,5.05
2023-02-19T04:19:11.769Z,4.70
2023-02-19T04:20:14.333Z,4.32
2023-02-19T04:21:16.528Z,5.07
2023-02-19T04:22:18.645Z,5.82
2023-02-19T04:24:31.106Z,3.47
2023-02-19T04:26:35.801Z,3.53
2023-02-19T04:27:38.842Z,4.15
2023-02-19T04:28:42.900Z,4.28
2023-02-19T04:29:44.310Z,4.38
2023-02-19T04:30:46.891Z,4.15
2023-02-19T04:31:48.493Z,4.10
2023-02-19T04:32:50.008Z,4.05
2023-02-19T04:33:51.434Z,4.32
2023-02-19T04:34:54.325Z,4.97
2023-02-19T04:35:55.895Z,4.32
2023-02-19T04:36:57.426Z,4.40
2023-02-19T04:37:58.881Z,4.00
2023-02-19T04:39:00.462Z,3.63
2023-02-19T04:40:01.933Z,3.20
2023-02-19T04:41:03.764Z,3.40
2023-02-19T04:42:05.498Z,3.22
2023-02-19T04:43:06.958Z,2.50
2023-02-19T04:44:08.375Z,2.55
2023-02-19T04:45:09.809Z,2.90
2023-02-19T04:46:11.306Z,2.58
2023-02-19T04:47:12.758Z,3.40
2023-02-19T04:48:14.904Z,2.60
2023-02-19T04:50:17.866Z,2.33
2023-02-19T04:51:19.279Z,3.05
2023-02-19T04:52:20.714Z,2.72
2023-02-19T04:53:22.200Z,2.80
2023-02-19T04:54:23.790Z,2.70
2023-02-19T04:55:25.270Z,3.17
2023-02-19T04:56:26.729Z,2.63
2023-02-19T04:57:28.138Z,3.13
2023-02-19T04:58:31.166Z,3.08
2023-02-19T04:59:33.149Z,3.22
2023-02-19T05:00:34.564Z,4.13
2023-02-19T05:01:36.041Z,3.47
2023-02-19T05:02:37.543Z,2.83
2023-02-19T05:03:39.148Z,2.92
2023-02-19T05:04:41.171Z,3.15
2023-02-19T05:05:42.644Z,3.17
2023-02-19T05:06:44.050Z,3.25
2023-02-19T05:07:45.757Z,4.20
2023-02-19T05:08:47.220Z,3.13
2023-02-19T05:09:48.639Z,3.40
2023-02-19T05:10:50.083Z,3.33
2023-02-19T05:11:51.500Z,3.00
2023-02-19T05:12:56.794Z,3.50
2023-02-19T05:13:59.362Z,3.15
2023-02-19T05:15:00.798Z,3.00
2023-02-19T05:16:09.542Z,4.00
2023-02-19T05:17:11.006Z,2.72
2023-02-19T05:18:12.469Z,3.03
2023-02-19T05:19:13.952Z,3.28
2023-02-19T05:20:15.483Z,2.95
2023-02-19T05:21:17.036Z,3.13
2023-02-19T05:22:18.482Z,3.30
2023-02-19T05:23:21.337Z,2.60
2023-02-19T05:24:24.314Z,2.80
2023-02-19T05:25:25.739Z,3.15
2023-02-19T05:26:27.169Z,2.90
2023-02-19T05:27:30.637Z,2.83
2023-02-19T05:28:32.066Z,2.75
2023-02-19T05:29:33.504Z,3.10
2023-02-19T05:30:35.495Z,2.92
2023-02-19T05:31:36.984Z,3.53
2023-02-19T05:32:38.729Z,3.33
2023-02-19T05:33:42.400Z,3.13
2023-02-19T05:34:43.835Z,3.08
2023-02-19T05:35:49.980Z,3.50
2023-02-19T05:36:51.452Z,3.40
2023-02-19T05:37:52.854Z,3.45
2023-02-19T05:38:57.371Z,3.30
2023-02-19T05:39:58.782Z,3.65
2023-02-19T05:41:18.329Z,3.63
2023-02-19T05:42:19.785Z,3.10
2023-02-19T05:43:21.197Z,3.17
2023-02-19T05:44:22.660Z,3.22
2023-02-19T05:45:24.084Z,3.55
2023-02-19T05:46:29.578Z,2.85
2023-02-19T05:47:31.046Z,3.35
2023-02-19T05:48:32.999Z,3.28
2023-02-19T05:49:34.456Z,3.10
2023-02-19T05:50:39.450Z,3.38
2023-02-19T05:51:41.157Z,3.47
2023-02-19T05:52:44.122Z,3.28
2023-02-19T05:53:46.769Z,4.22
2023-02-19T05:54:48.216Z,3.45
2023-02-19T05:55:49.644Z,3.20
2023-02-19T05:56:51.063Z,2.83
2023-02-19T05:57:52.622Z,3.25
2023-02-19T05:58:54.871Z,3.85
2023-02-19T05:59:56.751Z,3.78
2023-02-19T06:00:58.183Z,3.38
2023-02-19T06:01:59.685Z,2.97
2023-02-19T06:03:01.663Z,2.78
2023-02-19T06:04:03.313Z,2.92
2023-02-19T06:05:05.789Z,3.40
2023-02-19T06:06:07.570Z,3.63
2023-02-19T06:07:09.235Z,3.08
2023-02-19T06:08:14.025Z,3.35
2023-02-19T06:09:15.622Z,3.15
2023-02-19T06:10:18.087Z,3.08
2023-02-19T06:11:20.142Z,3.22
2023-02-19T06:12:21.595Z,2.80
2023-02-19T06:13:22.969Z,3.35
2023-02-19T06:14:24.420Z,3.70
2023-02-19T06:15:25.810Z,2.92
2023-02-19T06:16:27.502Z,3.20
2023-02-19T06:17:28.972Z,3.20
2023-02-19T06:18:30.403Z,2.90
2023-02-19T06:19:31.875Z,2.90
2023-02-19T06:20:33.387Z,3.78
2023-02-19T06:21:34.899Z,2.92
2023-02-19T06:22:36.321Z,2.95
2023-02-19T06:23:38.835Z,3.33
2023-02-19T06:24:40.295Z,3.90
2023-02-19T06:25:41.960Z,3.55
2023-02-19T06:26:43.379Z,3.60
2023-02-19T06:27:44.896Z,3.78
2023-02-19T06:28:48.830Z,3.50
2023-02-19T06:29:50.416Z,3.80
2023-02-19T06:30:51.873Z,3.45
2023-02-19T06:31:53.327Z,4.35
2023-02-19T06:32:54.869Z,3.63
2023-02-19T06:33:56.372Z,3.55
2023-02-19T06:34:57.805Z,3.50
2023-02-19T06:36:02.072Z,3.78
2023-02-19T06:37:03.522Z,3.17
2023-02-19T06:38:04.936Z,3.58
2023-02-19T06:39:06.612Z,3.88
2023-02-19T06:40:08.540Z,3.33
2023-02-19T06:41:10.751Z,4.00
2023-02-19T06:42:12.364Z,4.40
2023-02-19T06:43:13.770Z,5.10
2023-02-19T06:44:15.197Z,3.75
2023-02-19T06:45:16.596Z,3.80
2023-02-19T06:46:18.134Z,3.20
2023-02-19T06:47:19.647Z,3.90
2023-02-19T06:48:21.170Z,3.00
2023-02-19T06:49:22.785Z,4.07
2023-02-19T06:50:24.247Z,41.47
2023-02-19T06:51:27.217Z,11.32
2023-02-19T06:52:28.621Z,14.23
2023-02-19T06:53:30.497Z,19.33
2023-02-19T06:54:33.305Z,24.17
2023-02-19T06:55:34.751Z,6.03
2023-02-19T06:56:39.512Z,15.73
2023-02-19T06:57:40.974Z,4.93
2023-02-19T06:58:42.396Z,5.82
2023-02-19T06:59:43.892Z,61.80
2023-02-19T07:00:45.316Z,25.52
2023-02-19T07:01:46.750Z,8.65
2023-02-19T07:02:48.226Z,6.63
2023-02-19T07:03:50.831Z,6.70
2023-02-19T07:04:52.311Z,22.95
2023-02-19T07:05:53.766Z,10.68
2023-02-19T07:06:55.195Z,21.98
2023-02-19T07:07:56.671Z,7.45
2023-02-19T07:08:59.006Z,4.18
2023-02-19T07:10:00.452Z,6.18
2023-02-19T07:11:01.976Z,14.68
2023-02-19T07:12:03.619Z,13.65
2023-02-19T07:13:05.211Z,8.85
2023-02-19T07:14:08.881Z,5.15
2023-02-19T07:15:10.362Z,10.55
2023-02-19T07:16:12.740Z,4.50
2023-02-19T07:17:14.242Z,4.60
2023-02-19T07:18:15.673Z,5.25
2023-02-19T07:19:17.128Z,10.15
2023-02-19T07:20:18.691Z,19.58
2023-02-19T07:21:20.098Z,4.40
2023-02-19T07:22:21.547Z,3.72
2023-02-19T07:23:22.939Z,4.50
2023-02-19T07:24:24.314Z,7.65
2023-02-19T07:25:25.748Z,4.00
2023-02-19T07:26:27.217Z,3.90
2023-02-19T07:27:28.626Z,9.57
2023-02-19T07:28:30.081Z,3.83
2023-02-19T07:29:31.531Z,7.95
2023-02-19T07:30:33.094Z,6.72
2023-02-19T07:31:34.706Z,4.53
2023-02-19T07:32:36.448Z,5.53
2023-02-19T07:33:37.893Z,4.60
2023-02-19T07:34:39.330Z,4.72
2023-02-19T07:35:48.321Z,5.97
2023-02-19T07:36:49.719Z,7.72
2023-02-19T07:37:51.136Z,6.30
2023-02-19T07:38:57.030Z,4.90
2023-02-19T07:39:58.426Z,2.78
2023-02-19T07:41:02.277Z,4.10
2023-02-19T07:42:03.794Z,3.63
2023-02-19T07:43:05.197Z,3.78
2023-02-19T07:44:06.662Z,3.83
2023-02-19T07:45:08.548Z,3.85
2023-02-19T07:46:12.444Z,5.03
2023-02-19T07:47:13.866Z,4.15
2023-02-19T07:48:15.683Z,4.13
2023-02-19T07:49:17.166Z,3.95
2023-02-19T07:50:18.720Z,3.97
2023-02-19T07:51:20.914Z,4.35
2023-02-19T07:52:22.553Z,3.40
2023-02-19T07:53:25.278Z,4.20
2023-02-19T07:54:26.749Z,3.17
2023-02-19T07:55:28.249Z,3.35
2023-02-19T07:56:29.718Z,3.00
2023-02-19T07:57:31.286Z,4.38
2023-02-19T07:58:33.275Z,4.15
2023-02-19T07:59:34.944Z,2.88
2023-02-19T08:00:36.356Z,2.90
2023-02-19T08:01:56.255Z,4.00
2023-02-19T08:03:00.497Z,4.18
2023-02-19T08:04:01.964Z,3.42
2023-02-19T08:05:05.266Z,3.67
2023-02-19T08:06:07.074Z,3.15
2023-02-19T08:07:08.483Z,3.20
2023-02-19T08:08:12.386Z,4.45
2023-02-19T08:09:13.843Z,4.10
2023-02-19T08:10:33.894Z,12.20
2023-02-19T08:11:54.279Z,8.90
2023-02-19T08:13:18.574Z,11.30
2023-02-19T08:14:20.216Z,4.35
2023-02-19T08:15:22.568Z,4.82
2023-02-19T08:16:37.204Z,3.35
2023-02-19T08:17:43.771Z,3.67
2023-02-19T08:18:46.267Z,16.45
2023-02-19T08:19:47.671Z,6.35
2023-02-19T08:20:49.347Z,5.97
2023-02-19T08:21:50.944Z,6.63
2023-02-19T08:22:52.358Z,10.45
2023-02-19T08:23:53.835Z,8.60
2023-02-19T08:24:55.260Z,3.88
2023-02-19T08:26:00.656Z,4.65
2023-02-19T08:27:02.035Z,3.63
2023-02-19T08:28:04.183Z,3.60
2023-02-19T08:30:08.800Z,2.35
2023-02-19T08:31:12.723Z,3.65
2023-02-19T08:32:14.442Z,2.80
2023-02-19T08:33:18.959Z,3.15
2023-02-19T08:34:20.378Z,2.67
2023-02-19T08:35:22.145Z,2.72
2023-02-19T08:36:23.588Z,2.85
2023-02-19T08:37:24.966Z,3.63
2023-02-19T08:38:26.365Z,2.60
2023-02-19T08:39:27.890Z,2.63
2023-02-19T08:40:29.520Z,2.42
2023-02-19T08:41:30.929Z,2.78
2023-02-19T08:42:32.342Z,2.40
2023-02-19T08:43:33.830Z,2.72
2023-02-19T08:44:35.246Z,2.55
2023-02-19T08:45:41.120Z,2.97
2023-02-19T08:46:42.523Z,2.75
2023-02-19T08:47:44.317Z,2.40
2023-02-19T08:48:45.976Z,2.65
2023-02-19T08:49:47.405Z,2.55
2023-02-19T08:51:00.357Z,2.63
2023-02-19T08:52:01.770Z,2.50
2023-02-19T08:53:05.095Z,2.50
2023-02-19T08:54:06.547Z,2.47
2023-02-19T08:55:08.232Z,2.08
2023-02-19T08:56:12.601Z,2.13
2023-02-19T08:57:14.004Z,2.70
2023-02-19T08:58:15.436Z,2.20
2023-02-19T08:59:16.985Z,2.58
2023-02-19T09:00:18.815Z,2.80
2023-02-19T09:01:20.317Z,2.47
2023-02-19T09:02:22.083Z,2.22
2023-02-19T09:03:23.548Z,2.60
2023-02-19T09:04:25.205Z,2.42
2023-02-19T09:05:26.695Z,3.90
2023-02-19T09:06:28.121Z,5.43
2023-02-19T09:07:29.543Z,5.57
2023-02-19T09:08:30.985Z,12.38
2023-02-19T09:09:32.377Z,8.82
2023-02-19T09:10:34.067Z,3.15
2023-02-19T09:11:35.506Z,8.68
2023-02-19T09:12:38.189Z,4.05
2023-02-19T09:13:39.650Z,5.32
2023-02-19T09:14:41.381Z,3.50
2023-02-19T09:15:42.805Z,12.68
2023-02-19T09:16:44.232Z,20.13
2023-02-19T09:17:45.619Z,9.40
2023-02-19T09:18:47.068Z,3.00
2023-02-19T09:19:50.770Z,2.80
2023-02-19T09:20:52.473Z,3.53
2023-02-19T09:21:54.100Z,2.67
2023-02-19T09:22:59.444Z,1.90
2023-02-19T09:24:00.890Z,2.67
2023-02-19T09:25:02.450Z,2.58
2023-02-19T09:26:08.458Z,3.15
2023-02-19T09:27:15.321Z,2.65
2023-02-19T09:28:16.881Z,2.58
2023-02-19T09:29:18.791Z,2.13
2023-02-19T09:30:20.308Z,2.55
2023-02-19T09:31:21.858Z,2.10
2023-02-19T09:32:23.294Z,1.80
2023-02-19T09:33:24.795Z,1.70
2023-02-19T09:34:27.762Z,2.08
2023-02-19T09:35:29.152Z,1.95
2023-02-19T09:36:30.625Z,1.80
2023-02-19T09:37:34.034Z,2.17
2023-02-19T09:38:35.614Z,2.22
2023-02-19T09:39:37.050Z,2.50
2023-02-19T09:40:39.507Z,1.83
2023-02-19T09:41:49.886Z,2.28
2023-02-19T09:42:51.954Z,1.60
2023-02-19T09:44:57.677Z,1.70
2023-02-19T09:46:25.503Z,1.80
2023-02-19T09:47:30.153Z,1.65
2023-02-19T09:48:32.189Z,2.50
2023-02-19T09:49:40.650Z,2.22
2023-02-19T09:50:48.573Z,2.20
2023-02-19T09:52:15.277Z,16.02
2023-02-19T09:53:29.657Z,6.80
2023-02-19T09:54:32.065Z,2.53
2023-02-19T09:55:40.689Z,2.65
2023-02-19T09:56:42.224Z,1.83
2023-02-19T09:57:45.646Z,3.17
2023-02-19T09:58:50.262Z,1.83
2023-02-19T10:00:00.235Z,1.40
2023-02-19T10:01:04.402Z,1.75
2023-02-19T10:02:22.162Z,1.70
2023-02-19T10:03:41.383Z,2.40
2023-02-19T10:04:44.806Z,2.58
2023-02-19T10:05:46.345Z,2.63
2023-02-19T10:06:48.922Z,2.40
2023-02-19T10:07:53.178Z,1.73
2023-02-19T10:09:12.316Z,2.42
2023-02-19T10:10:13.663Z,1.55
2023-02-19T10:11:15.883Z,1.40
2023-02-19T10:12:28.939Z,1.50
2023-02-19T10:13:37.582Z,1.30
2023-02-19T10:14:43.879Z,2.28
2023-02-19T10:15:57.367Z,3.38
2023-02-19T10:17:02.160Z,2.20
2023-02-19T10:18:05.360Z,2.60
2023-02-19T10:19:11.316Z,2.42
2023-02-19T10:20:15.980Z,1.88
2023-02-19T10:21:20.300Z,1.33
2023-02-19T10:22:21.829Z,1.60
2023-02-19T10:23:24.741Z,1.45
2023-02-19T10:24:29.758Z,1.45
2023-02-19T10:25:32.994Z,1.67
2023-02-19T10:26:37.284Z,1.65
2023-02-19T10:27:38.713Z,1.63
2023-02-19T10:28:40.301Z,1.45
2023-02-19T10:29:46.511Z,1.80
2023-02-19T10:30:54.643Z,1.50
2023-02-19T10:32:24.054Z,1.50
2023-02-19T10:33:26.347Z,1.10
2023-02-19T10:34:27.855Z,1.50
2023-02-19T10:35:30.509Z,1.17
2023-02-19T10:36:36.152Z,5.75
2023-02-19T10:37:46.343Z,1.52
2023-02-19T10:38:47.976Z,1.70
2023-02-19T10:39:50.618Z,1.42
2023-02-19T10:41:12.181Z,2.00
2023-02-19T10:42:18.944Z,1.77
2023-02-19T10:43:31.124Z,1.60
2023-02-19T10:44:42.531Z,1.30
2023-02-19T10:45:50.206Z,1.80
2023-02-19T10:46:55.284Z,1.35
2023-02-19T10:47:57.058Z,1.88
2023-02-19T10:49:01.407Z,1.90
2023-02-19T10:50:04.628Z,1.75
2023-02-19T10:51:10.750Z,1.45
2023-02-19T10:52:20.300Z,1.13
2023-02-19T10:53:23.886Z,1.23
2023-02-19T10:54:31.405Z,1.48
2023-02-19T10:55:37.526Z,1.33
2023-02-19T10:56:40.689Z,2.20
2023-02-19T10:57:42.280Z,1.20
2023-02-19T10:58:44.946Z,1.25
2023-02-19T10:59:51.706Z,1.60
2023-02-19T11:01:12.198Z,1.55
2023-02-19T11:02:19.063Z,1.40
2023-02-19T11:03:22.614Z,1.50
2023-02-19T11:04:26.074Z,1.30
2023-02-19T11:05:27.573Z,1.48
2023-02-19T11:06:29.470Z,1.17
2023-02-19T11:07:31.300Z,1.25
2023-02-19T11:08:49.457Z,1.20
2023-02-19T11:09:53.820Z,1.30
2023-02-19T11:10:55.498Z,1.38
2023-02-19T11:11:58.407Z,1.38
2023-02-19T11:13:02.802Z,1.38
2023-02-19T11:14:19.309Z,1.23
2023-02-19T11:15:31.766Z,1.40
2023-02-19T11:16:44.891Z,1.10
2023-02-19T11:17:55.035Z,1.33
2023-02-19T11:18:57.210Z,1.17
2023-02-19T11:20:04.901Z,1.55
2023-02-19T11:21:07.806Z,1.00
2023-02-19T11:22:19.804Z,1.08
2023-02-19T11:23:30.493Z,1.00
2023-02-19T11:24:37.108Z,1.33
2023-02-19T11:25:48.608Z,1.35
2023-02-19T11:26:50.169Z,1.52
2023-02-19T11:28:09.555Z,1.35
2023-02-19T11:29:23.143Z,0.95
2023-02-19T11:30:30.373Z,1.25
2023-02-19T11:31:33.080Z,1.17
2023-02-19T11:32:34.612Z,1.02
2023-02-19T11:33:42.635Z,1.33
2023-02-19T11:34:44.214Z,0.85
2023-02-19T11:35:47.349Z,1.73
2023-02-19T11:37:14.078Z,1.05
2023-02-19T11:38:18.173Z,1.05
2023-02-19T11:39:24.037Z,1.52
2023-02-19T11:40:50.336Z,1.25
2023-02-19T11:42:19.604Z,1.20
2023-02-19T11:43:31.547Z,1.35
2023-02-19T11:44:48.506Z,0.88
2023-02-19T11:46:22.777Z,1.20
2023-02-19T11:47:39.536Z,1.35
2023-02-19T11:48:46.864Z,1.15
2023-02-19T11:50:02.693Z,1.00
2023-02-19T11:51:37.467Z,1.17
2023-02-19T11:53:03.258Z,1.30
2023-02-19T11:54:37.498Z,1.70
2023-02-19T11:56:03.630Z,1.30
2023-02-19T11:58:58.521Z,1.15
2023-02-19T12:00:23.129Z,1.15
2023-02-19T12:01:36.955Z,1.35
2023-02-19T12:02:48.126Z,1.08
2023-02-19T12:04:20.460Z,1.20
2023-02-19T12:05:31.453Z,1.10
2023-02-19T12:07:10.322Z,1.15
2023-02-19T12:08:27.649Z,1.45
2023-02-19T12:09:40.957Z,1.17
2023-02-19T12:11:11.331Z,1.23
2023-02-19T12:12:41.780Z,1.25
2023-02-19T12:14:27.628Z,1.17
2023-02-19T12:16:05.711Z,0.98
2023-02-19T12:17:23.776Z,0.95
2023-02-19T12:18:43.531Z,0.85
2023-02-19T12:19:55.397Z,1.10
2023-02-19T12:21:18.314Z,1.23
2023-02-19T12:22:36.250Z,1.83
2023-02-19T12:23:56.136Z,0.90
2023-02-19T12:25:07.242Z,1.52
2023-02-19T12:26:19.543Z,1.50
2023-02-19T12:27:37.345Z,1.10
2023-02-19T12:29:20.643Z,1.00
2023-02-19T12:30:42.318Z,0.98
2023-02-19T12:31:59.350Z,1.00
2023-02-19T12:33:21.732Z,1.40
2023-02-19T12:34:23.271Z,1.20
2023-02-19T12:35:37.192Z,1.10
2023-02-19T12:37:13.156Z,0.90
2023-02-19T12:38:23.251Z,1.10
2023-02-19T12:40:09.091Z,1.17
2023-02-19T12:41:28.938Z,0.82
2023-02-19T12:42:50.801Z,1.05
2023-02-19T12:44:04.357Z,1.00
2023-02-19T12:45:35.622Z,1.25
2023-02-19T12:46:45.238Z,0.90
2023-02-19T12:48:06.111Z,1.60
2023-02-19T12:49:15.120Z,1.00
2023-02-19T12:50:23.619Z,1.05
2023-02-19T12:51:24.985Z,1.00
2023-02-19T12:52:31.569Z,1.00
2023-02-19T12:53:38.724Z,1.50
2023-02-19T12:54:47.407Z,1.00
2023-02-19T12:55:48.953Z,1.00
2023-02-19T12:57:06.630Z,1.52
2023-02-19T12:58:16.680Z,1.20
2023-02-19T12:59:34.278Z,1.35
2023-02-19T13:00:39.554Z,1.27
2023-02-19T13:01:59.168Z,1.10
2023-02-19T13:03:05.889Z,0.77
2023-02-19T13:04:37.087Z,1.15
2023-02-19T13:06:13.607Z,1.42
2023-02-19T13:07:28.004Z,1.20
2023-02-19T13:08:39.583Z,1.25
2023-02-19T13:09:58.621Z,1.00
2023-02-19T13:11:05.416Z,1.20
2023-02-19T13:12:38.047Z,1.00
2023-02-19T13:13:51.707Z,1.10
2023-02-19T13:15:03.570Z,0.98
2023-02-19T13:16:24.557Z,1.52
2023-02-19T13:17:36.633Z,1.40
2023-02-19T13:18:45.830Z,1.10
2023-02-19T13:19:50.355Z,1.52
2023-02-19T13:20:54.907Z,1.42
2023-02-19T13:22:33.266Z,1.40
2023-02-19T13:24:03.073Z,1.35
2023-02-19T13:25:07.347Z,1.17
2023-02-19T13:26:28.644Z,1.15
2023-02-19T13:27:58.501Z,1.00
2023-02-19T13:29:34.167Z,0.82
2023-02-19T13:30:54.390Z,0.93
2023-02-19T13:32:23.678Z,2.10
2023-02-19T13:33:47.968Z,1.17
2023-02-19T13:35:13.888Z,1.02
2023-02-19T13:36:27.493Z,0.90
2023-02-19T13:37:36.532Z,1.08
2023-02-19T13:38:44.952Z,1.67
2023-02-19T13:39:49.906Z,0.90
2023-02-19T13:40:56.872Z,1.00
2023-02-19T13:41:59.202Z,1.10
2023-02-19T13:43:04.182Z,1.00
2023-02-19T13:44:11.099Z,1.05
2023-02-19T13:45:22.738Z,1.10
2023-02-19T13:46:25.199Z,1.15
2023-02-19T13:47:53.950Z,1.05
2023-02-19T13:49:23.409Z,1.00
2023-02-19T13:50:26.471Z,1.10
2023-02-19T13:51:27.832Z,1.30
2023-02-19T13:52:29.219Z,0.90
2023-02-19T13:53:45.584Z,0.70
2023-02-19T13:54:47.040Z,1.20
2023-02-19T13:55:51.824Z,1.10
2023-02-19T13:57:27.822Z,1.10
2023-02-19T13:58:52.965Z,1.10
2023-02-19T13:59:58.788Z,0.93
2023-02-19T14:01:04.383Z,0.93
2023-02-19T14:02:12.369Z,0.93
2023-02-19T14:03:28.589Z,0.75
2023-02-19T14:04:42.217Z,1.25
2023-02-19T14:06:02.646Z,1.05
2023-02-19T14:07:04.124Z,0.95
2023-02-19T14:08:09.062Z,0.95
2023-02-19T14:09:36.044Z,0.82
2023-02-19T14:10:51.725Z,1.25
2023-02-19T14:12:13.737Z,0.88
2023-02-19T14:13:50.963Z,1.08
2023-02-19T14:14:56.255Z,0.93
2023-02-19T14:15:57.747Z,0.88
2023-02-19T14:17:04.425Z,0.85
2023-02-19T14:18:43.007Z,0.90
2023-02-19T14:19:52.576Z,0.63
2023-02-19T14:21:07.091Z,1.00
2023-02-19T14:22:45.911Z,0.70
2023-02-19T14:23:53.898Z,0.93
2023-02-19T14:24:57.460Z,0.70
2023-02-19T14:26:01.157Z,1.75
2023-02-19T14:27:03.309Z,1.05
2023-02-19T14:28:10.610Z,0.80
2023-02-19T14:29:14.616Z,1.13
2023-02-19T14:30:16.320Z,0.93
2023-02-19T14:31:36.432Z,1.58
2023-02-19T14:32:40.231Z,1.00
2023-02-19T14:33:48.885Z,1.05
2023-02-19T14:34:50.350Z,1.05
2023-02-19T14:35:59.419Z,1.50
2023-02-19T14:37:02.457Z,1.08
2023-02-19T14:38:04.834Z,1.10
2023-02-19T14:39:17.302Z,0.80
2023-02-19T14:40:26.365Z,1.42
2023-02-19T14:41:30.842Z,1.00
2023-02-19T14:42:33.997Z,1.33
2023-02-19T14:43:36.654Z,1.17
2023-02-19T14:44:51.306Z,1.10
2023-02-19T14:45:58.805Z,1.50
2023-02-19T14:47:06.753Z,1.23
2023-02-19T14:48:18.319Z,1.20
2023-02-19T14:49:31.467Z,1.23
2023-02-19T14:50:34.976Z,0.93
2023-02-19T14:51:40.243Z,1.00
2023-02-19T14:52:51.338Z,0.93
2023-02-19T14:53:54.124Z,0.73
2023-02-19T14:55:01.123Z,0.80
2023-02-19T14:56:03.640Z,1.20
2023-02-19T14:57:11.826Z,0.90
2023-02-19T14:58:28.275Z,0.82
2023-02-19T14:59:30.637Z,1.40
2023-02-19T15:00:37.419Z,1.08